Time;durP1;ratioP1;P1;durP2;ratioP2;P2;SDS_P1;SDS_P2;PMS_P1;PMS_P2;Temp;Humidity;BMP_temperature;BMP_pressure;BME280_temperature;BME280_humidity;BME280_pressure;Samples;Min_cycle;Max_cycle;Signal;HPM_P1;HPM_P2
2023/10/29 00:00:43;;;;;;;;;;;;;;;;;;5093780;28;19904;-72
2023/10/29 00:03:10;;;;;;;;;;;;;;;;;;5093903;28;19950;-73
2023/10/29 00:05:36;;;;;;;;;;;;;;;;;;5093254;28;20318;-72
2023/10/29 00:08:02;;;;;;;;;;;;;;;;;;5094001;28;19904;-73
2023/10/29 00:10:28;;;;;;;;;;;;;;;;;;5093697;28;19940;-72
2023/10/29 00:12:54;;;;;;;;;;;;;;;;;;5093240;28;19908;-72
2023/10/29 00:15:20;;;;;;;;;;;;;;;;;;5093612;28;19904;-72
2023/10/29 00:17:46;;;;;;;;;;;;;;;;;;5075484;28;19904;-72
2023/10/29 00:20:12;;;;;;;;;;;;;;;;;;5093171;28;19903;-72
2023/10/29 00:22:38;;;;;;;;;;;;;;;;;;5093531;28;19910;-73
2023/10/29 00:25:04;;;;;;;;;;;;;;;;;;5093408;28;19912;-73
2023/10/29 00:27:30;;;;;;;;;;;;;;;;;;5075307;28;19915;-72
2023/10/29 00:29:56;;;;;;;;;;;;;;;;;;5093906;28;19904;-72
2023/10/29 00:32:22;;;;;;;;;;;;;;;;;;5094754;28;19957;-73
2023/10/29 00:34:48;;;;;;;;;;;;;;;;;;5097032;28;19957;-73
2023/10/29 00:37:14;;;;;;;;;;;;;;;;;;5097238;28;20010;-72
2023/10/29 00:39:40;;;;;;;;;;;;;;;;;;5097263;28;19904;-72
2023/10/29 00:42:06;;;;;;;;;;;;;;;;;;5096817;28;19987;-72
2023/10/29 00:44:32;;;;;;;;;;;;;;;;;;5097137;28;19904;-71
2023/10/29 00:46:58;;;;;;;;;;;;;;;;;;5096846;28;19923;-72
2023/10/29 00:49:24;;;;;;;;;;;;;;;;;;5096649;28;19937;-72
2023/10/29 00:51:50;;;;;;;;;;;;;;;;;;5096949;28;19911;-72
2023/10/29 00:54:16;;;;;;;;;;;;;;;;;;5096990;28;19904;-72
2023/10/29 00:56:42;;;;;;;;;;;;;;;;;;5096430;28;19911;-72
2023/10/29 00:59:11;;;;;;;;;;;;;;;;;;5097098;28;19904;-72
2023/10/29 01:01:37;;;;;;;;;;;;;;;;;;5096372;28;19907;-72
2023/10/29 01:04:04;;;;;;;;;;;;;;;;;;5096699;28;20049;-72
2023/10/29 01:06:30;;;;;;;;;;;;;;;;;;5096643;28;19919;-71
2023/10/29 01:08:56;;;;;;;;;;;;;;;;;;5096251;28;19986;-72
2023/10/29 01:11:22;;;;;;;;;;;;;;;;;;5078410;28;20395;-72
2023/10/29 01:13:48;;;;;;;;;;;;;;;;;;5096600;28;19991;-72
2023/10/29 01:16:14;;;;;;;;;;;;;;;;;;5096122;28;19936;-72
2023/10/29 01:18:40;;;;;;;;;;;;;;;;;;5096491;28;20347;-73
2023/10/29 01:21:08;;;;;;;;;;;;;;;;;;5096815;28;20271;-72
2023/10/29 01:23:34;;;;;;;;;;;;;;;;;;5077854;28;20311;-72
2023/10/29 01:26:00;;;;;;;;;;;;;;;;;;5096330;28;19919;-73
2023/10/29 01:28:26;;;;;;;;;;;;;;;;;;5078241;28;20278;-72
2023/10/29 01:30:52;;;;;;;;;;;;;;;;;;5095846;28;20389;-72
2023/10/29 01:33:18;;;;;;;;;;;;;;;;;;5096434;28;19940;-72
2023/10/29 01:35:44;;;;;;;;;;;;;;;;;;5096148;28;19947;-72
2023/10/29 01:38:10;;;;;;;;;;;;;;;;;;5077608;28;19904;-72
2023/10/29 01:40:36;;;;;;;;;;;;;;;;;;5096046;28;19911;-72
2023/10/29 01:43:02;;;;;;;;;;;;;;;;;;5095849;28;19904;-73
2023/10/29 01:45:28;;;;;;;;;;;;;;;;;;5095270;28;19916;-72
2023/10/29 01:47:54;;;;;;;;;;;;;;;;;;5096139;28;19911;-72
2023/10/29 01:50:20;;;;;;;;;;;;;;;;;;5095966;28;20006;-73
2023/10/29 01:52:46;;;;;;;;;;;;;;;;;;5095419;28;20306;-72
2023/10/29 01:55:12;;;;;;;;;;;;;;;;;;5095807;28;19911;-73
2023/10/29 01:57:38;;;;;;;;;;;;;;;;;;5095336;28;19904;-72
2023/10/29 02:00:08;;;;;;;;;;;;;;;;;;5077515;28;19965;-73
2023/10/29 02:02:34;;;;;;;;;;;;;;;;;;5095621;28;19904;-72
2023/10/29 02:05:00;;;;;;;;;;;;;;;;;;5095126;28;19915;-73
2023/10/29 02:07:26;;;;;;;;;;;;;;;;;;5095479;28;19912;-73
2023/10/29 02:09:52;;;;;;;;;;;;;;;;;;5095439;28;19908;-72
2023/10/29 02:12:18;;;;;;;;;;;;;;;;;;5076874;28;19904;-72
2023/10/29 02:14:44;;;;;;;;;;;;;;;;;;5095388;28;19927;-72
2023/10/29 02:17:11;;;;;;;;;;;;;;;;;;5077256;28;19904;-72
2023/10/29 02:19:37;;;;;;;;;;;;;;;;;;5095052;28;19908;-72
2023/10/29 02:22:02;;;;;;;;;;;;;;;;;;5095525;28;20388;-72
2023/10/29 02:24:28;;;;;;;;;;;;;;;;;;5077378;28;19957;-73
2023/10/29 02:26:54;;;;;;;;;;;;;;;;;;5094596;28;19931;-73
2023/10/29 02:29:20;;;;;;;;;;;;;;;;;;5095161;28;19912;-73
2023/10/29 02:31:46;;;;;;;;;;;;;;;;;;5095061;28;19998;-73
2023/10/29 02:34:12;;;;;;;;;;;;;;;;;;5094654;28;19904;-73
2023/10/29 02:36:38;;;;;;;;;;;;;;;;;;5094980;28;19911;-73
2023/10/29 02:39:04;;;;;;;;;;;;;;;;;;5094877;28;19904;-73
2023/10/29 02:41:30;;;;;;;;;;;;;;;;;;5094794;28;19904;-72
2023/10/29 02:43:58;;;;;;;;;;;;;;;;;;5094883;28;19935;-73
2023/10/29 02:46:24;;;;;;;;;;;;;;;;;;5094565;28;20007;-72
2023/10/29 02:48:50;;;;;;;;;;;;;;;;;;5094595;28;20391;-73
2023/10/29 02:51:16;;;;;;;;;;;;;;;;;;5094711;28;19904;-73
2023/10/29 02:53:42;;;;;;;;;;;;;;;;;;5095101;28;20264;-73
2023/10/29 02:56:07;;;;;;;;;;;;;;;;;;5093862;28;20318;-73
2023/10/29 02:58:34;;;;;;;;;;;;;;;;;;5094605;28;19996;-72
2023/10/29 03:01:00;;;;;;;;;;;;;;;;;;5094301;28;19943;-72
2023/10/29 03:03:25;;;;;;;;;;;;;;;;;;5094520;28;19904;-73
2023/10/29 03:05:51;;;;;;;;;;;;;;;;;;5094353;28;19922;-73
2023/10/29 03:08:17;;;;;;;;;;;;;;;;;;5094069;28;20058;-73
2023/10/29 03:10:43;;;;;;;;;;;;;;;;;;5094337;28;19904;-72
2023/10/29 03:13:09;;;;;;;;;;;;;;;;;;5076254;28;19908;-72
2023/10/29 03:15:35;;;;;;;;;;;;;;;;;;5075751;28;19954;-72
2023/10/29 03:18:01;;;;;;;;;;;;;;;;;;5094240;28;19911;-72
2023/10/29 03:20:27;;;;;;;;;;;;;;;;;;5094261;28;19994;-72
2023/10/29 03:22:53;;;;;;;;;;;;;;;;;;5075610;28;19904;-72
2023/10/29 03:25:19;;;;;;;;;;;;;;;;;;5094133;28;19951;-72
2023/10/29 03:27:45;;;;;;;;;;;;;;;;;;5094147;28;19908;-72
2023/10/29 03:30:11;;;;;;;;;;;;;;;;;;5075521;28;19904;-72
2023/10/29 03:32:37;;;;;;;;;;;;;;;;;;5093976;28;19910;-72
2023/10/29 03:35:04;;;;;;;;;;;;;;;;;;5094129;28;19933;-73
2023/10/29 03:37:29;;;;;;;;;;;;;;;;;;5093573;28;20413;-72
2023/10/29 03:39:55;;;;;;;;;;;;;;;;;;5093921;28;19904;-72
2023/10/29 03:42:21;;;;;;;;;;;;;;;;;;5093983;28;19904;-73
2023/10/29 03:44:47;;;;;;;;;;;;;;;;;;5093502;28;20006;-73
2023/10/29 03:47:13;;;;;;;;;;;;;;;;;;5093903;28;19919;-73
2023/10/29 03:49:39;;;;;;;;;;;;;;;;;;5093844;28;19911;-73
2023/10/29 03:52:05;;;;;;;;;;;;;;;;;;5093500;28;20280;-73
2023/10/29 03:54:31;;;;;;;;;;;;;;;;;;5093827;28;19999;-73
2023/10/29 03:56:57;;;;;;;;;;;;;;;;;;5093826;28;19951;-73
2023/10/29 03:59:23;;;;;;;;;;;;;;;;;;5093399;28;19907;-73
2023/10/29 04:01:49;;;;;;;;;;;;;;;;;;5075624;28;19904;-73
2023/10/29 04:04:15;;;;;;;;;;;;;;;;;;5075277;28;20002;-73
2023/10/29 04:06:41;;;;;;;;;;;;;;;;;;5093961;28;19999;-73
2023/10/29 04:09:07;;;;;;;;;;;;;;;;;;5097798;28;19904;-73
2023/10/29 04:11:33;;;;;;;;;;;;;;;;;;5097372;28;20271;-73
2023/10/29 04:13:59;;;;;;;;;;;;;;;;;;5097763;28;19904;-73
2023/10/29 04:16:25;;;;;;;;;;;;;;;;;;5097683;28;19996;-73
2023/10/29 04:18:51;;;;;;;;;;;;;;;;;;5097343;28;19915;-73
2023/10/29 04:21:17;;;;;;;;;;;;;;;;;;5079448;28;20316;-73
2023/10/29 04:23:43;;;;;;;;;;;;;;;;;;5098117;28;20284;-74
2023/10/29 04:26:09;;;;;;;;;;;;;;;;;;5078984;28;19912;-73
2023/10/29 04:28:35;;;;;;;;;;;;;;;;;;5097485;28;20365;-73
2023/10/29 04:31:01;;;;;;;;;;;;;;;;;;5097420;28;19990;-73
2023/10/29 04:33:27;;;;;;;;;;;;;;;;;;5097019;28;20299;-73
2023/10/29 04:35:53;;;;;;;;;;;;;;;;;;5097629;28;19911;-73
2023/10/29 04:38:19;;;;;;;;;;;;;;;;;;5097332;28;19911;-72
2023/10/29 04:40:45;;;;;;;;;;;;;;;;;;5096799;28;19934;-72
2023/10/29 04:43:11;;;;;;;;;;;;;;;;;;5097186;28;20368;-72
2023/10/29 04:45:37;;;;;;;;;;;;;;;;;;5078736;28;19922;-72
2023/10/29 04:48:03;;;;;;;;;;;;;;;;;;5096694;28;19908;-72
2023/10/29 04:50:30;;;;;;;;;;;;;;;;;;5097709;28;19999;-72
2023/10/29 04:52:56;;;;;;;;;;;;;;;;;;5096934;28;19904;-71
2023/10/29 04:55:22;;;;;;;;;;;;;;;;;;5096735;28;19950;-73
2023/10/29 04:57:48;;;;;;;;;;;;;;;;;;5096874;28;19908;-73
2023/10/29 05:00:14;;;;;;;;;;;;;;;;;;5097105;28;19930;-73
2023/10/29 05:02:40;;;;;;;;;;;;;;;;;;5096499;28;19998;-73
2023/10/29 05:05:06;;;;;;;;;;;;;;;;;;5096842;28;19904;-73
2023/10/29 05:07:32;;;;;;;;;;;;;;;;;;5096402;28;19904;-73
2023/10/29 05:09:58;;;;;;;;;;;;;;;;;;5096692;28;19986;-73
2023/10/29 05:12:24;;;;;;;;;;;;;;;;;;5096673;28;19908;-73
2023/10/29 05:14:51;;;;;;;;;;;;;;;;;;5096293;28;19927;-73
2023/10/29 05:17:17;;;;;;;;;;;;;;;;;;5096450;28;19904;-73
2023/10/29 05:19:44;;;;;;;;;;;;;;;;;;5096226;28;20410;-73
2023/10/29 05:22:10;;;;;;;;;;;;;;;;;;5096184;28;19908;-73
2023/10/29 05:24:36;;;;;;;;;;;;;;;;;;5096377;28;19904;-73
2023/10/29 05:27:03;;;;;;;;;;;;;;;;;;5078176;28;20334;-73
2023/10/29 05:29:28;;;;;;;;;;;;;;;;;;5077784;28;19903;-73
2023/10/29 05:31:54;;;;;;;;;;;;;;;;;;5096251;28;20378;-73
2023/10/29 05:34:20;;;;;;;;;;;;;;;;;;5096227;28;19957;-73
2023/10/29 05:36:47;;;;;;;;;;;;;;;;;;5095736;28;19904;-72
2023/10/29 05:39:14;;;;;;;;;;;;;;;;;;5096418;28;19943;-73
2023/10/29 05:41:40;;;;;;;;;;;;;;;;;;5096131;28;20356;-73
2023/10/29 05:44:06;;;;;;;;;;;;;;;;;;5095616;28;19904;-73
2023/10/29 05:46:32;;;;;;;;;;;;;;;;;;5095757;28;20329;-72
2023/10/29 05:48:58;;;;;;;;;;;;;;;;;;5095934;28;19904;-73
2023/10/29 05:51:24;;;;;;;;;;;;;;;;;;5095479;28;19910;-73
2023/10/29 05:53:50;;;;;;;;;;;;;;;;;;5095852;28;19904;-73
2023/10/29 05:56:18;;;;;;;;;;;;;;;;;;5095811;28;20375;-73
2023/10/29 05:58:44;;;;;;;;;;;;;;;;;;5077248;28;19904;-73
2023/10/29 06:01:10;;;;;;;;;;;;;;;;;;5095640;28;19912;-74
2023/10/29 06:03:36;;;;;;;;;;;;;;;;;;5095671;28;19994;-73
2023/10/29 06:06:02;;;;;;;;;;;;;;;;;;5095154;28;20383;-73
2023/10/29 06:08:28;;;;;;;;;;;;;;;;;;5095570;28;19904;-73
2023/10/29 06:10:54;;;;;;;;;;;;;;;;;;5076901;28;19913;-73
2023/10/29 06:13:20;;;;;;;;;;;;;;;;;;5095454;28;19904;-73
2023/10/29 06:15:46;;;;;;;;;;;;;;;;;;5095383;28;19904;-73
2023/10/29 06:18:13;;;;;;;;;;;;;;;;;;5076880;28;19972;-73
2023/10/29 06:20:39;;;;;;;;;;;;;;;;;;5095340;28;19927;-73
2023/10/29 06:23:04;;;;;;;;;;;;;;;;;;5095366;28;20360;-73
2023/10/29 06:25:30;;;;;;;;;;;;;;;;;;5095028;28;19908;-73
2023/10/29 06:27:56;;;;;;;;;;;;;;;;;;5095227;28;19908;-73
2023/10/29 06:30:22;;;;;;;;;;;;;;;;;;5094264;28;19904;-73
2023/10/29 06:32:48;;;;;;;;;;;;;;;;;;5094683;28;19904;-73
2023/10/29 06:35:14;;;;;;;;;;;;;;;;;;5095024;28;20391;-73
2023/10/29 06:37:40;;;;;;;;;;;;;;;;;;5076806;28;20322;-73
2023/10/29 06:40:06;;;;;;;;;;;;;;;;;;5094550;28;19904;-73
2023/10/29 06:42:32;;;;;;;;;;;;;;;;;;5095113;28;19949;-73
2023/10/29 06:44:58;;;;;;;;;;;;;;;;;;5094622;28;19908;-73
2023/10/29 06:47:24;;;;;;;;;;;;;;;;;;5094562;28;20002;-73
2023/10/29 06:49:50;;;;;;;;;;;;;;;;;;5094870;28;19911;-73
2023/10/29 06:52:16;;;;;;;;;;;;;;;;;;5094716;28;19990;-73
2023/10/29 06:54:42;;;;;;;;;;;;;;;;;;5094436;28;20006;-73
2023/10/29 06:57:08;;;;;;;;;;;;;;;;;;5094575;28;19911;-73
2023/10/29 06:59:34;;;;;;;;;;;;;;;;;;5094615;28;20065;-73
2023/10/29 07:02:00;;;;;;;;;;;;;;;;;;5094195;28;19910;-73
2023/10/29 07:04:26;;;;;;;;;;;;;;;;;;5094509;28;19911;-73
2023/10/29 07:06:52;;;;;;;;;;;;;;;;;;5094412;28;19912;-73
2023/10/29 07:09:18;;;;;;;;;;;;;;;;;;5094189;28;19904;-73
2023/10/29 07:11:44;;;;;;;;;;;;;;;;;;5094483;28;19997;-73
2023/10/29 07:14:10;;;;;;;;;;;;;;;;;;5094017;28;19936;-73
2023/10/29 07:16:37;;;;;;;;;;;;;;;;;;5094529;28;20432;-73
2023/10/29 07:19:04;;;;;;;;;;;;;;;;;;5076186;28;19987;-73
2023/10/29 07:21:30;;;;;;;;;;;;;;;;;;5093874;28;19915;-73
2023/10/29 07:28:42;;;;;;;;;;;;;;;;;;5111829;27;19916;-72
2023/10/29 07:31:07;;;;;;;;;;;;;;;;;;5111728;28;20026;-73
2023/10/29 07:33:33;;;;;;;;;;;;;;;;;;5111900;28;19908;-72
2023/10/29 07:35:59;;;;;;;;;;;;;;;;;;5111232;28;20337;-73
2023/10/29 07:38:25;;;;;;;;;;;;;;;;;;5111546;28;20306;-73
2023/10/29 07:40:51;;;;;;;;;;;;;;;;;;5111451;28;19911;-73
2023/10/29 07:43:17;;;;;;;;;;;;;;;;;;5111526;28;20288;-73
2023/10/29 07:45:44;;;;;;;;;;;;;;;;;;5111411;28;19908;-73
2023/10/29 07:48:10;;;;;;;;;;;;;;;;;;5111344;28;19916;-74
2023/10/29 07:51:44;;;;;;;;;;;;;;;;;;5091452;27;19912;-73
2023/10/29 07:54:10;;;;;;;;;;;;;;;;;;5091315;28;19935;-73
2023/10/29 07:56:35;;;;;;;;;;;;;;;;;;5089606;28;19954;-73
2023/10/29 08:00:20;;;;;;;;;;;;;;;;;;5092163;28;19938;-72
2023/10/29 08:07:04;;;;;;;;;;;;;;;;;;5112306;27;20373;-72
2023/10/29 08:09:30;;;;;;;;;;;;;;;;;;5111679;28;20006;-71
2023/10/29 08:11:56;;;;;;;;;;;;;;;;;;5111202;28;19955;-72
2023/10/29 08:14:59;;;;;;;;;;;;;;;;;;5112551;27;19916;-72
2023/10/29 08:18:21;;;;;;;;;;;;;;;;;;5091421;28;19912;-73
2023/10/29 08:20:46;;;;;;;;;;;;;;;;;;5091378;28;20369;-73
2023/10/29 08:23:12;;;;;;;;;;;;;;;;;;5091251;28;19915;-73
2023/10/29 08:25:38;;;;;;;;;;;;;;;;;;5090817;28;19908;-73
2023/10/29 08:28:04;;;;;;;;;;;;;;;;;;5091186;28;19908;-73
2023/10/29 08:30:30;;;;;;;;;;;;;;;;;;5091141;28;19913;-73
2023/10/29 08:32:56;;;;;;;;;;;;;;;;;;5090720;28;19919;-74
2023/10/29 08:35:22;;;;;;;;;;;;;;;;;;5091090;28;19955;-74
2023/10/29 08:37:48;;;;;;;;;;;;;;;;;;5090943;28;20431;-74
2023/10/29 08:40:14;;;;;;;;;;;;;;;;;;5090557;28;20325;-73
2023/10/29 08:42:40;;;;;;;;;;;;;;;;;;5090852;28;19920;-73
2023/10/29 08:45:06;;;;;;;;;;;;;;;;;;5091486;28;19908;-73
2023/10/29 08:47:32;;;;;;;;;;;;;;;;;;5090437;28;20429;-73
2023/10/29 08:49:58;;;;;;;;;;;;;;;;;;5090792;28;19908;-73
2023/10/29 08:52:24;;;;;;;;;;;;;;;;;;5090689;28;19951;-73
2023/10/29 08:54:50;;;;;;;;;;;;;;;;;;5090179;28;19912;-73
2023/10/29 08:57:16;;;;;;;;;;;;;;;;;;5089407;28;20327;-73
2023/10/29 08:59:42;;;;;;;;;;;;;;;;;;5090248;28;19962;-73
2023/10/29 09:02:08;;;;;;;;;;;;;;;;;;5090695;28;19908;-73
2023/10/29 09:04:34;;;;;;;;;;;;;;;;;;5090546;28;19908;-73
2023/10/29 09:07:00;;;;;;;;;;;;;;;;;;5088652;28;19948;-73
2023/10/29 09:09:26;;;;;;;;;;;;;;;;;;5089203;28;19951;-73
2023/10/29 09:11:53;;;;;;;;;;;;;;;;;;5090291;28;19908;-73
2023/10/29 09:14:19;;;;;;;;;;;;;;;;;;5089813;28;19912;-73
2023/10/29 09:16:47;;;;;;;;;;;;;;;;;;5097838;28;20482;-74
2023/10/29 09:19:13;;;;;;;;;;;;;;;;;;5110838;28;19908;-74
2023/10/29 09:21:39;;;;;;;;;;;;;;;;;;5110241;28;19908;-73
2023/10/29 09:26:32;;;;;;;;;;;;;;;;;;5071305;27;19919;-72
2023/10/29 09:29:00;;;;;;;;;;;;;;;;;;5070880;28;19913;-73
2023/10/29 09:31:25;;;;;;;;;;;;;;;;;;5071379;28;19952;-73
2023/10/29 09:33:51;;;;;;;;;;;;;;;;;;5070996;28;19909;-73
2023/10/29 09:36:18;;;;;;;;;;;;;;;;;;5070596;28;19909;-73
2023/10/29 09:38:44;;;;;;;;;;;;;;;;;;5070893;28;19928;-73
2023/10/29 09:41:10;;;;;;;;;;;;;;;;;;5070890;28;19913;-73
2023/10/29 09:43:36;;;;;;;;;;;;;;;;;;5070351;28;19916;-72
2023/10/29 09:46:02;;;;;;;;;;;;;;;;;;5070751;28;19917;-73
2023/10/29 09:48:28;;;;;;;;;;;;;;;;;;5070959;28;20357;-73
2023/10/29 09:50:54;;;;;;;;;;;;;;;;;;5070363;28;20404;-73
2023/10/29 09:53:20;;;;;;;;;;;;;;;;;;5070696;28;20288;-74
2023/10/29 09:55:45;;;;;;;;;;;;;;;;;;5069368;28;20254;-74
2023/10/29 09:58:11;;;;;;;;;;;;;;;;;;5068840;28;20449;-72
2023/10/29 10:00:38;;;;;;;;;;;;;;;;;;5071010;28;20442;-74
2023/10/29 10:03:04;;;;;;;;;;;;;;;;;;5069982;28;19963;-75
2023/10/29 10:05:30;;;;;;;;;;;;;;;;;;5070283;28;19920;-74
2023/10/29 10:07:56;;;;;;;;;;;;;;;;;;5070154;28;20269;-74
2023/10/29 10:10:22;;;;;;;;;;;;;;;;;;5068622;28;20265;-74
2023/10/29 10:12:48;;;;;;;;;;;;;;;;;;5069076;28;19966;-74
2023/10/29 10:15:14;;;;;;;;;;;;;;;;;;5070156;28;20250;-72
2023/10/29 10:17:40;;;;;;;;;;;;;;;;;;5070127;28;20003;-73
2023/10/29 10:20:06;;;;;;;;;;;;;;;;;;5070078;28;19948;-73
2023/10/29 10:22:32;;;;;;;;;;;;;;;;;;5070003;28;19916;-73
2023/10/29 10:24:58;;;;;;;;;;;;;;;;;;5069208;28;19920;-74
2023/10/29 10:27:24;;;;;;;;;;;;;;;;;;5069834;28;20331;-73
2023/10/29 10:29:50;;;;;;;;;;;;;;;;;;5069954;28;20270;-73
2023/10/29 10:32:17;;;;;;;;;;;;;;;;;;5069597;28;20396;-75
2023/10/29 10:34:43;;;;;;;;;;;;;;;;;;5070111;28;19908;-74
2023/10/29 10:37:09;;;;;;;;;;;;;;;;;;5060328;28;19915;-74
2023/10/29 10:39:35;;;;;;;;;;;;;;;;;;5056137;28;19952;-73
2023/10/29 10:42:02;;;;;;;;;;;;;;;;;;5056353;28;19913;-73
2023/10/29 10:44:31;;;;;;;;;;;;;;;;;;5056345;28;19959;-73
2023/10/29 10:46:58;;;;;;;;;;;;;;;;;;5055983;28;19913;-73
2023/10/29 10:49:24;;;;;;;;;;;;;;;;;;5056277;28;20424;-73
2023/10/29 10:51:50;;;;;;;;;;;;;;;;;;5056284;28;19959;-73
2023/10/29 10:54:17;;;;;;;;;;;;;;;;;;5055823;28;19948;-73
2023/10/29 10:56:43;;;;;;;;;;;;;;;;;;5056229;28;19915;-73
2023/10/29 10:59:09;;;;;;;;;;;;;;;;;;5056117;28;20277;-73
2023/10/29 11:01:35;;;;;;;;;;;;;;;;;;5056127;28;19916;-73
2023/10/29 11:04:04;;;;;;;;;;;;;;;;;;5056036;28;19909;-74
2023/10/29 11:06:30;;;;;;;;;;;;;;;;;;5055523;28;19920;-73
2023/10/29 11:08:56;;;;;;;;;;;;;;;;;;5055922;28;20285;-73
2023/10/29 11:11:23;;;;;;;;;;;;;;;;;;5056048;28;19909;-72
2023/10/29 11:13:50;;;;;;;;;;;;;;;;;;5055550;28;20004;-74
2023/10/29 11:16:16;;;;;;;;;;;;;;;;;;5055747;28;19955;-73
2023/10/29 11:18:41;;;;;;;;;;;;;;;;;;5054587;28;19909;-73
2023/10/29 11:21:08;;;;;;;;;;;;;;;;;;5055312;28;19916;-74
2023/10/29 11:23:34;;;;;;;;;;;;;;;;;;5055667;28;19909;-73
2023/10/29 11:26:00;;;;;;;;;;;;;;;;;;5054216;28;20416;-74
2023/10/29 11:28:26;;;;;;;;;;;;;;;;;;5054060;28;19932;-73
2023/10/29 11:30:52;;;;;;;;;;;;;;;;;;5055462;28;20361;-73
2023/10/29 11:33:19;;;;;;;;;;;;;;;;;;5055355;28;19909;-73
2023/10/29 11:35:45;;;;;;;;;;;;;;;;;;5055060;28;19909;-74
2023/10/29 11:38:11;;;;;;;;;;;;;;;;;;5055633;28;20388;-74
2023/10/29 11:40:37;;;;;;;;;;;;;;;;;;5055242;28;19909;-74
2023/10/29 11:43:03;;;;;;;;;;;;;;;;;;5054897;28;19989;-74
2023/10/29 11:45:29;;;;;;;;;;;;;;;;;;5055180;28;19979;-71
2023/10/29 11:47:55;;;;;;;;;;;;;;;;;;5054303;28;19909;-72
2023/10/29 11:50:21;;;;;;;;;;;;;;;;;;5054797;28;19916;-72
2023/10/29 11:52:47;;;;;;;;;;;;;;;;;;5055122;28;20369;-73
2023/10/29 11:55:13;;;;;;;;;;;;;;;;;;5055090;28;19916;-73
2023/10/29 11:57:39;;;;;;;;;;;;;;;;;;5054685;28;19974;-72
2023/10/29 12:00:05;;;;;;;;;;;;;;;;;;5055010;28;20369;-73
2023/10/29 12:02:31;;;;;;;;;;;;;;;;;;5054563;28;20400;-73
2023/10/29 12:04:57;;;;;;;;;;;;;;;;;;5054752;28;19940;-72
2023/10/29 12:07:24;;;;;;;;;;;;;;;;;;5054737;28;19909;-73
2023/10/29 12:09:50;;;;;;;;;;;;;;;;;;5054335;28;20246;-72
2023/10/29 12:12:16;;;;;;;;;;;;;;;;;;5054577;28;19909;-73
2023/10/29 12:14:46;;;;;;;;;;;;;;;;;;5054510;28;19916;-73
2023/10/29 12:17:12;;;;;;;;;;;;;;;;;;5054307;28;20318;-73
2023/10/29 12:19:38;;;;;;;;;;;;;;;;;;5054984;28;19998;-73
2023/10/29 12:22:04;;;;;;;;;;;;;;;;;;5054969;28;19908;-73
2023/10/29 12:24:30;;;;;;;;;;;;;;;;;;5053715;28;20392;-73
2023/10/29 12:26:56;;;;;;;;;;;;;;;;;;5054502;28;19909;-73
2023/10/29 12:29:22;;;;;;;;;;;;;;;;;;5054611;28;19956;-73
2023/10/29 12:31:48;;;;;;;;;;;;;;;;;;5052722;28;19963;-73
2023/10/29 12:34:14;;;;;;;;;;;;;;;;;;5054694;28;19915;-73
2023/10/29 12:36:40;;;;;;;;;;;;;;;;;;5053033;28;20007;-73
2023/10/29 12:39:07;;;;;;;;;;;;;;;;;;5053938;28;19916;-73
2023/10/29 12:41:33;;;;;;;;;;;;;;;;;;5054256;28;19954;-73
2023/10/29 12:43:59;;;;;;;;;;;;;;;;;;5054201;28;20003;-72
2023/10/29 12:46:25;;;;;;;;;;;;;;;;;;5052523;28;19924;-72
2023/10/29 12:48:51;;;;;;;;;;;;;;;;;;5054468;28;19909;-72
2023/10/29 12:51:17;;;;;;;;;;;;;;;;;;5053986;28;19917;-72
2023/10/29 12:53:44;;;;;;;;;;;;;;;;;;5053679;28;19908;-72
2023/10/29 12:56:10;;;;;;;;;;;;;;;;;;5054007;28;19999;-73
2023/10/29 12:58:36;;;;;;;;;;;;;;;;;;5054195;28;19944;-73
2023/10/29 13:01:02;;;;;;;;;;;;;;;;;;5051930;28;19912;-73
2023/10/29 13:03:28;;;;;;;;;;;;;;;;;;5053809;28;19909;-73
2023/10/29 13:05:54;;;;;;;;;;;;;;;;;;5053425;28;20023;-73
2023/10/29 13:08:20;;;;;;;;;;;;;;;;;;5053911;28;20399;-73
2023/10/29 13:10:46;;;;;;;;;;;;;;;;;;5054337;28;20428;-74
2023/10/29 13:13:12;;;;;;;;;;;;;;;;;;5053620;28;20266;-73
2023/10/29 13:15:38;;;;;;;;;;;;;;;;;;5053823;28;19955;-73
2023/10/29 13:18:04;;;;;;;;;;;;;;;;;;5053713;28;19909;-73
2023/10/29 13:20:30;;;;;;;;;;;;;;;;;;5053454;28;19955;-73
2023/10/29 13:22:57;;;;;;;;;;;;;;;;;;5053686;28;19916;-73
2023/10/29 13:25:24;;;;;;;;;;;;;;;;;;5053339;28;20373;-73
2023/10/29 13:27:50;;;;;;;;;;;;;;;;;;5053257;28;19912;-73
2023/10/29 13:30:16;;;;;;;;;;;;;;;;;;5053597;28;19909;-73
2023/10/29 13:32:42;;;;;;;;;;;;;;;;;;5052361;28;19916;-73
2023/10/29 13:35:09;;;;;;;;;;;;;;;;;;5052028;28;20000;-73
2023/10/29 13:37:34;;;;;;;;;;;;;;;;;;5053809;28;19909;-73
2023/10/29 13:40:00;;;;;;;;;;;;;;;;;;5052366;28;19909;-74
2023/10/29 13:42:26;;;;;;;;;;;;;;;;;;5051610;28;19909;-74
2023/10/29 13:44:52;;;;;;;;;;;;;;;;;;5053395;28;20019;-71
2023/10/29 13:47:18;;;;;;;;;;;;;;;;;;5053548;28;19951;-72
2023/10/29 13:49:44;;;;;;;;;;;;;;;;;;5053378;28;20320;-72
2023/10/29 13:52:11;;;;;;;;;;;;;;;;;;5053348;28;19963;-72
2023/10/29 13:54:38;;;;;;;;;;;;;;;;;;5053219;28;19936;-72
2023/10/29 13:57:04;;;;;;;;;;;;;;;;;;5052964;28;19909;-74
2023/10/29 13:59:30;;;;;;;;;;;;;;;;;;5053320;28;19913;-74
2023/10/29 14:01:57;;;;;;;;;;;;;;;;;;5053581;28;19909;-74
2023/10/29 14:04:23;;;;;;;;;;;;;;;;;;5052903;28;20360;-73
2023/10/29 14:06:49;;;;;;;;;;;;;;;;;;5051959;28;19913;-73
2023/10/29 14:09:15;;;;;;;;;;;;;;;;;;5052863;28;19909;-73
2023/10/29 14:11:41;;;;;;;;;;;;;;;;;;5054455;28;20353;-73
2023/10/29 14:14:07;;;;;;;;;;;;;;;;;;5056987;28;19916;-73
2023/10/29 14:16:34;;;;;;;;;;;;;;;;;;5056672;28;19909;-73
2023/10/29 14:19:00;;;;;;;;;;;;;;;;;;5057265;28;19913;-73
2023/10/29 14:21:26;;;;;;;;;;;;;;;;;;5057001;28;19908;-73
2023/10/29 14:23:52;;;;;;;;;;;;;;;;;;5056526;28;19908;-74
2023/10/29 14:26:18;;;;;;;;;;;;;;;;;;5056622;28;19920;-74
2023/10/29 14:28:44;;;;;;;;;;;;;;;;;;5056756;28;19909;-74
2023/10/29 14:31:10;;;;;;;;;;;;;;;;;;5056317;28;20011;-73
2023/10/29 14:33:36;;;;;;;;;;;;;;;;;;5056741;28;19916;-74
2023/10/29 14:36:02;;;;;;;;;;;;;;;;;;5056751;28;19916;-74
2023/10/29 14:38:28;;;;;;;;;;;;;;;;;;5056164;28;19909;-73
2023/10/29 14:40:55;;;;;;;;;;;;;;;;;;5056518;28;19913;-74
2023/10/29 14:43:21;;;;;;;;;;;;;;;;;;5055286;28;19908;-73
2023/10/29 14:45:47;;;;;;;;;;;;;;;;;;5055971;28;20015;-74
2023/10/29 14:48:13;;;;;;;;;;;;;;;;;;5056595;28;20288;-73
2023/10/29 14:50:39;;;;;;;;;;;;;;;;;;5055152;28;20262;-73
2023/10/29 14:53:05;;;;;;;;;;;;;;;;;;5055937;28;20285;-73
2023/10/29 14:55:31;;;;;;;;;;;;;;;;;;5056288;28;20277;-73
2023/10/29 14:57:57;;;;;;;;;;;;;;;;;;5056212;28;19912;-73
2023/10/29 15:00:23;;;;;;;;;;;;;;;;;;5055854;28;19913;-73
2023/10/29 15:02:49;;;;;;;;;;;;;;;;;;5056146;28;19955;-73
2023/10/29 15:05:15;;;;;;;;;;;;;;;;;;5056133;28;20360;-73
2023/10/29 15:07:41;;;;;;;;;;;;;;;;;;5055752;28;19996;-73
2023/10/29 15:10:07;;;;;;;;;;;;;;;;;;5055983;28;20008;-73
2023/10/29 15:12:34;;;;;;;;;;;;;;;;;;5054248;28;20292;-73
2023/10/29 15:15:00;;;;;;;;;;;;;;;;;;5055613;28;20004;-72
2023/10/29 15:17:26;;;;;;;;;;;;;;;;;;5055761;28;19959;-73
2023/10/29 15:19:53;;;;;;;;;;;;;;;;;;5055649;28;19909;-73
2023/10/29 15:22:19;;;;;;;;;;;;;;;;;;5055648;28;19919;-73
2023/10/29 15:24:45;;;;;;;;;;;;;;;;;;5055420;28;20015;-73
2023/10/29 15:27:11;;;;;;;;;;;;;;;;;;5055272;28;19916;-73
2023/10/29 15:29:38;;;;;;;;;;;;;;;;;;5055528;28;19909;-73
2023/10/29 15:32:04;;;;;;;;;;;;;;;;;;5056029;28;19913;-73
2023/10/29 15:34:30;;;;;;;;;;;;;;;;;;5055248;28;19920;-73
2023/10/29 15:36:56;;;;;;;;;;;;;;;;;;5055491;28;19955;-73
2023/10/29 15:39:22;;;;;;;;;;;;;;;;;;5054122;28;19915;-73
2023/10/29 15:41:48;;;;;;;;;;;;;;;;;;5054939;28;19915;-73
2023/10/29 15:44:15;;;;;;;;;;;;;;;;;;5053971;28;19909;-72
2023/10/29 15:46:43;;;;;;;;;;;;;;;;;;5054810;28;19941;-73
2023/10/29 15:49:09;;;;;;;;;;;;;;;;;;5054876;28;19967;-72
2023/10/29 15:51:35;;;;;;;;;;;;;;;;;;5055153;28;19909;-73
2023/10/29 15:54:01;;;;;;;;;;;;;;;;;;5055186;28;19912;-73
2023/10/29 15:56:27;;;;;;;;;;;;;;;;;;5054692;28;19913;-73
2023/10/29 15:58:53;;;;;;;;;;;;;;;;;;5055002;28;19916;-73
2023/10/29 16:01:19;;;;;;;;;;;;;;;;;;5055548;28;20369;-73
2023/10/29 16:03:45;;;;;;;;;;;;;;;;;;5054508;28;20114;-73
2023/10/29 16:08:30;;;;;;;;;;;;;;;;;;5091953;27;20384;-72
2023/10/29 16:10:56;;;;;;;;;;;;;;;;;;5090742;28;19944;-72
2023/10/29 16:15:08;;;;;;;;;;;;;;;;;;5091636;27;19923;-72
2023/10/29 16:17:34;;;;;;;;;;;;;;;;;;5090908;28;19919;-72
2023/10/29 16:19:59;;;;;;;;;;;;;;;;;;5091474;28;19994;-72
2023/10/29 16:24:55;;;;;;;;;;;;;;;;;;5131747;27;19912;-72
2023/10/29 16:27:21;;;;;;;;;;;;;;;;;;5132213;28;19919;-73
2023/10/29 16:29:47;;;;;;;;;;;;;;;;;;5131675;28;19915;-74
2023/10/29 16:32:13;;;;;;;;;;;;;;;;;;5132208;28;20295;-73
2023/10/29 16:34:40;;;;;;;;;;;;;;;;;;5130791;28;20374;-73
2023/10/29 16:37:07;;;;;;;;;;;;;;;;;;5131671;27;20556;-73
2023/10/29 16:40:33;;;;;;;;;;;;;;;;;;5092235;27;19923;-72
2023/10/29 16:42:59;;;;;;;;;;;;;;;;;;5091616;28;19919;-71
2023/10/29 16:45:25;;;;;;;;;;;;;;;;;;5090888;28;19908;-72
2023/10/29 16:47:51;;;;;;;;;;;;;;;;;;5091292;28;19931;-72
2023/10/29 16:50:17;;;;;;;;;;;;;;;;;;5091239;28;19952;-72
2023/10/29 16:52:44;;;;;;;;;;;;;;;;;;5090775;28;19912;-72
2023/10/29 16:55:11;;;;;;;;;;;;;;;;;;5091180;28;19908;-73
2023/10/29 16:57:37;;;;;;;;;;;;;;;;;;5091046;28;19974;-73
2023/10/29 17:00:04;;;;;;;;;;;;;;;;;;5090528;28;20407;-72